N75RA YSBK-YSCB
Flight info
| Callsign | N75RA |
|---|---|
| Flight time | 0h 36m |
| Altitude | 20000 |
| Route | BK DCT PEGSU V169 CB |
| Aircraft | C700/M-SBDGHM1RWXY/LB2 |
Departure
| Time | 2026-04-25 08:26 |
|---|---|
| Airport | Sydney Bankstown Airport (YSBK) |
Arrival
| Time | 2026-04-25 09:03 |
|---|---|
| Airport | Canberra Airport (YSCB) |
| Time | Latitude | Longitude | Altitude | Speed | Heading |
|---|---|---|---|---|---|
| 2026-04-25 08:17 | -33.91796 | 150.98918 | 30 ft | 0 kts | 150° |
| 2026-04-25 08:22 | -33.91807 | 150.98926 | 29 ft | 7 kts | 151° |
| 2026-04-25 08:22 | -33.91849 | 150.98908 | 29 ft | 1 kts | 216° |
| 2026-04-25 08:22 | -33.91857 | 150.98907 | 29 ft | 5 kts | 182° |
| 2026-04-25 08:23 | -33.91895 | 150.98944 | 29 ft | 12 kts | 149° |
| 2026-04-25 08:23 | -33.91983 | 150.99003 | 29 ft | 17 kts | 149° |
| 2026-04-25 08:23 | -33.92089 | 150.99046 | 29 ft | 16 kts | 209° |
| 2026-04-25 08:23 | -33.92089 | 150.98948 | 29 ft | 15 kts | 304° |
| 2026-04-25 08:24 | -33.92021 | 150.98828 | 29 ft | 19 kts | 301° |
| 2026-04-25 08:24 | -33.91941 | 150.98696 | 29 ft | 14 kts | 328° |
| 2026-04-25 08:24 | -33.91863 | 150.98616 | 29 ft | 18 kts | 303° |
| 2026-04-25 08:24 | -33.91851 | 150.98495 | 29 ft | 14 kts | 213° |
| 2026-04-25 08:25 | -33.91942 | 150.98492 | 29 ft | 8 kts | 179° |
| 2026-04-25 08:25 | -33.91973 | 150.98492 | 29 ft | 0 kts | 179° |
| 2026-04-25 08:25 | -33.91975 | 150.98492 | 29 ft | 3 kts | 178° |
| 2026-04-25 08:26 | -33.92036 | 150.98505 | 29 ft | 13 kts | 144° |
| 2026-04-25 08:26 | -33.92184 | 150.98754 | 29 ft | 83 kts | 122° |
| 2026-04-25 08:26 | -33.92692 | 150.99648 | 275 ft | 161 kts | 121° |
| 2026-04-25 08:26 | -33.93364 | 151.00840 | 1526 ft | 179 kts | 114° |
| 2026-04-25 08:27 | -33.93453 | 151.02333 | 2938 ft | 195 kts | 71° |
| 2026-04-25 08:27 | -33.92625 | 151.03953 | 3119 ft | 263 kts | 41° |
| 2026-04-25 08:27 | -33.91050 | 151.04951 | 3074 ft | 252 kts | 11° |
| 2026-04-25 08:27 | -33.89374 | 151.04758 | 3021 ft | 239 kts | 338° |
| 2026-04-25 08:28 | -33.88096 | 151.03491 | 3016 ft | 242 kts | 308° |
| 2026-04-25 08:28 | -33.87200 | 151.01853 | 3011 ft | 227 kts | 303° |
| 2026-04-25 08:28 | -33.86551 | 151.00188 | 3003 ft | 217 kts | 281° |
| 2026-04-25 08:28 | -33.86628 | 150.98374 | 3041 ft | 224 kts | 262° |
| 2026-04-25 08:29 | -33.86867 | 150.96374 | 3897 ft | 257 kts | 263° |
| 2026-04-25 08:29 | -33.87111 | 150.94247 | 5594 ft | 263 kts | 262° |
| 2026-04-25 08:29 | -33.87354 | 150.92027 | 7411 ft | 270 kts | 262° |
| 2026-04-25 08:29 | -33.87588 | 150.89762 | 9085 ft | 279 kts | 262° |
| 2026-04-25 08:30 | -33.88060 | 150.87446 | 10557 ft | 295 kts | 243° |
| 2026-04-25 08:30 | -33.89489 | 150.85579 | 11712 ft | 316 kts | 210° |
| 2026-04-25 08:30 | -33.91578 | 150.84890 | 13454 ft | 316 kts | 181° |
| 2026-04-25 08:30 | -33.93796 | 150.84982 | 15012 ft | 323 kts | 175° |
| 2026-04-25 08:31 | -33.96070 | 150.85140 | 16460 ft | 331 kts | 177° |
| 2026-04-25 08:31 | -33.98407 | 150.85059 | 17885 ft | 341 kts | 184° |
| 2026-04-25 08:31 | -34.00782 | 150.84585 | 19205 ft | 350 kts | 190° |
| 2026-04-25 08:31 | -34.03198 | 150.83978 | 20258 ft | 364 kts | 189° |
| 2026-04-25 08:32 | -34.05825 | 150.83460 | 20372 ft | 399 kts | 186° |
| 2026-04-25 08:32 | -34.08671 | 150.83039 | 20379 ft | 421 kts | 186° |
| 2026-04-25 08:32 | -34.11552 | 150.82542 | 20379 ft | 425 kts | 188° |
| 2026-04-25 08:32 | -34.14492 | 150.81950 | 20375 ft | 428 kts | 188° |
| 2026-04-25 08:33 | -34.17431 | 150.81397 | 20375 ft | 427 kts | 187° |
| 2026-04-25 08:33 | -34.20368 | 150.80890 | 20378 ft | 426 kts | 187° |
| 2026-04-25 08:33 | -34.23298 | 150.80364 | 20379 ft | 425 kts | 187° |
| 2026-04-25 08:33 | -34.26227 | 150.79810 | 20379 ft | 426 kts | 188° |
| 2026-04-25 08:34 | -34.29108 | 150.78928 | 20367 ft | 430 kts | 198° |
| 2026-04-25 08:34 | -34.31840 | 150.77435 | 20364 ft | 431 kts | 208° |
| 2026-04-25 08:34 | -34.34317 | 150.75397 | 20361 ft | 431 kts | 218° |
| 2026-04-25 08:34 | -34.36472 | 150.72872 | 20363 ft | 432 kts | 227° |
| 2026-04-25 08:35 | -34.38299 | 150.69980 | 20364 ft | 434 kts | 233° |
| 2026-04-25 08:35 | -34.40092 | 150.67028 | 20367 ft | 435 kts | 232° |
| 2026-04-25 08:35 | -34.41893 | 150.64090 | 20363 ft | 433 kts | 232° |
| 2026-04-25 08:35 | -34.43678 | 150.61158 | 20366 ft | 432 kts | 232° |
| 2026-04-25 08:36 | -34.45763 | 150.58572 | 20353 ft | 431 kts | 214° |
| 2026-04-25 08:36 | -34.48485 | 150.57111 | 20356 ft | 430 kts | 192° |
| 2026-04-25 08:36 | -34.51444 | 150.56610 | 20361 ft | 427 kts | 184° |
| 2026-04-25 08:36 | -34.54364 | 150.56431 | 20362 ft | 425 kts | 180° |
| 2026-04-25 08:37 | -34.57305 | 150.56329 | 20359 ft | 416 kts | 181° |
| 2026-04-25 08:37 | -34.60110 | 150.56074 | 20354 ft | 391 kts | 184° |
| 2026-04-25 08:37 | -34.62718 | 150.55770 | 20354 ft | 362 kts | 184° |
| 2026-04-25 08:37 | -34.65139 | 150.55561 | 20350 ft | 334 kts | 182° |
| 2026-04-25 08:38 | -34.67378 | 150.55396 | 20352 ft | 310 kts | 182° |
| 2026-04-25 08:38 | -34.69456 | 150.55216 | 20346 ft | 289 kts | 178° |
| 2026-04-25 08:38 | -34.71300 | 150.55827 | 20343 ft | 267 kts | 147° |
| 2026-04-25 08:38 | -34.72593 | 150.57342 | 20347 ft | 255 kts | 127° |
| 2026-04-25 08:39 | -34.73624 | 150.59109 | 20347 ft | 260 kts | 124° |
| 2026-04-25 08:39 | -34.74654 | 150.60964 | 20345 ft | 267 kts | 123° |
| 2026-04-25 08:39 | -34.75683 | 150.62851 | 20345 ft | 268 kts | 123° |
| 2026-04-25 08:39 | -34.76899 | 150.64540 | 20344 ft | 267 kts | 144° |
| 2026-04-25 08:40 | -34.78658 | 150.65185 | 20346 ft | 271 kts | 180° |
| 2026-04-25 08:40 | -34.80542 | 150.64508 | 20353 ft | 304 kts | 207° |
| 2026-04-25 08:40 | -34.82393 | 150.63044 | 20368 ft | 335 kts | 214° |
| 2026-04-25 08:40 | -34.84314 | 150.61369 | 20368 ft | 342 kts | 214° |
| 2026-04-25 08:41 | -34.86309 | 150.59786 | 20366 ft | 342 kts | 211° |
| 2026-04-25 08:41 | -34.88342 | 150.58275 | 20360 ft | 343 kts | 211° |
| 2026-04-25 08:41 | -34.90353 | 150.56716 | 20358 ft | 342 kts | 212° |
| 2026-04-25 08:41 | -34.92324 | 150.55090 | 20356 ft | 342 kts | 217° |
| 2026-04-25 08:42 | -34.93990 | 150.53029 | 20358 ft | 342 kts | 230° |
| 2026-04-25 08:42 | -34.95257 | 150.50579 | 20356 ft | 343 kts | 243° |
| 2026-04-25 08:42 | -34.96059 | 150.47851 | 20356 ft | 343 kts | 256° |
| 2026-04-25 08:42 | -34.96564 | 150.45010 | 20359 ft | 342 kts | 257° |
| 2026-04-25 08:43 | -34.97088 | 150.42172 | 20361 ft | 343 kts | 257° |
| 2026-04-25 08:43 | -34.97612 | 150.39331 | 20361 ft | 345 kts | 257° |
| 2026-04-25 08:43 | -34.98130 | 150.36471 | 20361 ft | 345 kts | 257° |
| 2026-04-25 08:43 | -34.98648 | 150.33620 | 20361 ft | 344 kts | 257° |
| 2026-04-25 08:44 | -34.99164 | 150.30778 | 20363 ft | 343 kts | 257° |
| 2026-04-25 08:44 | -34.99679 | 150.27941 | 20363 ft | 342 kts | 257° |
| 2026-04-25 08:44 | -35.00194 | 150.25105 | 20364 ft | 343 kts | 257° |
| 2026-04-25 08:44 | -35.00708 | 150.22263 | 20361 ft | 343 kts | 257° |
| 2026-04-25 08:45 | -35.01222 | 150.19418 | 20366 ft | 344 kts | 257° |
| 2026-04-25 08:45 | -35.01737 | 150.16567 | 20366 ft | 344 kts | 257° |
| 2026-04-25 08:45 | -35.02250 | 150.13716 | 20367 ft | 344 kts | 257° |
| 2026-04-25 08:45 | -35.02762 | 150.10874 | 20364 ft | 342 kts | 257° |
| 2026-04-25 08:46 | -35.03271 | 150.08037 | 20213 ft | 345 kts | 257° |
| 2026-04-25 08:46 | -35.03785 | 150.05178 | 19976 ft | 343 kts | 258° |
| 2026-04-25 08:46 | -35.04291 | 150.02351 | 19738 ft | 339 kts | 258° |
| 2026-04-25 08:46 | -35.04623 | 150.00498 | 19580 ft | 336 kts | 258° |
| 2026-04-25 08:47 | -35.05201 | 149.97748 | 19343 ft | 333 kts | 250° |
| 2026-04-25 08:47 | -35.06253 | 149.95236 | 19101 ft | 333 kts | 237° |
| 2026-04-25 08:47 | -35.08248 | 149.92399 | 18792 ft | 333 kts | 226° |
| 2026-04-25 08:47 | -35.09840 | 149.90352 | 18547 ft | 332 kts | 227° |
| 2026-04-25 08:48 | -35.10910 | 149.88960 | 18376 ft | 332 kts | 227° |
| 2026-04-25 08:48 | -35.12495 | 149.86913 | 18109 ft | 331 kts | 227° |
| 2026-04-25 08:48 | -35.14077 | 149.84875 | 17846 ft | 329 kts | 227° |
| 2026-04-25 08:48 | -35.15648 | 149.82846 | 17587 ft | 327 kts | 227° |
| 2026-04-25 08:49 | -35.17207 | 149.80832 | 17333 ft | 325 kts | 227° |
| 2026-04-25 08:49 | -35.18736 | 149.78850 | 17083 ft | 324 kts | 227° |
| 2026-04-25 08:49 | -35.20283 | 149.76852 | 16825 ft | 323 kts | 227° |
| 2026-04-25 08:49 | -35.22342 | 149.74185 | 16497 ft | 322 kts | 227° |
| 2026-04-25 08:50 | -35.23359 | 149.72868 | 16335 ft | 321 kts | 227° |
| 2026-04-25 08:50 | -35.24891 | 149.70882 | 16081 ft | 320 kts | 227° |
| 2026-04-25 08:50 | -35.26412 | 149.68910 | 15838 ft | 318 kts | 227° |
| 2026-04-25 08:50 | -35.27929 | 149.66942 | 15597 ft | 317 kts | 227° |
| 2026-04-25 08:51 | -35.29440 | 149.64978 | 15355 ft | 316 kts | 227° |
| 2026-04-25 08:51 | -35.30942 | 149.63029 | 15175 ft | 313 kts | 227° |
| 2026-04-25 08:51 | -35.32434 | 149.61087 | 14856 ft | 315 kts | 227° |
| 2026-04-25 08:51 | -35.33941 | 149.59129 | 14450 ft | 315 kts | 227° |
| 2026-04-25 08:52 | -35.35431 | 149.57189 | 14021 ft | 310 kts | 227° |
| 2026-04-25 08:52 | -35.36894 | 149.55285 | 13610 ft | 304 kts | 227° |
| 2026-04-25 08:52 | -35.38353 | 149.53384 | 12900 ft | 308 kts | 227° |
| 2026-04-25 08:52 | -35.39798 | 149.51497 | 12434 ft | 299 kts | 227° |
| 2026-04-25 08:53 | -35.41209 | 149.49661 | 12037 ft | 294 kts | 227° |
| 2026-04-25 08:53 | -35.42606 | 149.47834 | 11648 ft | 295 kts | 227° |
| 2026-04-25 08:53 | -35.44017 | 149.45995 | 11259 ft | 297 kts | 227° |
| 2026-04-25 08:53 | -35.45432 | 149.44144 | 10863 ft | 297 kts | 227° |
| 2026-04-25 08:54 | -35.46841 | 149.42302 | 10476 ft | 294 kts | 227° |
| 2026-04-25 08:54 | -35.48234 | 149.40483 | 10075 ft | 291 kts | 227° |
| 2026-04-25 08:54 | -35.49607 | 149.38682 | 9683 ft | 288 kts | 227° |
| 2026-04-25 08:54 | -35.50976 | 149.36891 | 9306 ft | 287 kts | 227° |
| 2026-04-25 08:55 | -35.52321 | 149.35129 | 8928 ft | 286 kts | 227° |
| 2026-04-25 08:55 | -35.53675 | 149.33356 | 8554 ft | 276 kts | 227° |
| 2026-04-25 08:55 | -35.54790 | 149.31493 | 8186 ft | 268 kts | 243° |
| 2026-04-25 08:55 | -35.55434 | 149.29422 | 7843 ft | 261 kts | 257° |
| 2026-04-25 08:56 | -35.55701 | 149.27248 | 7507 ft | 255 kts | 263° |
| 2026-04-25 08:56 | -35.55948 | 149.25104 | 7174 ft | 251 kts | 262° |
| 2026-04-25 08:56 | -35.55964 | 149.23032 | 6839 ft | 237 kts | 285° |
| 2026-04-25 08:56 | -35.55273 | 149.21265 | 6522 ft | 227 kts | 307° |
| 2026-04-25 08:57 | -35.54088 | 149.20011 | 6221 ft | 226 kts | 332° |
| 2026-04-25 08:57 | -35.52599 | 149.19447 | 5925 ft | 225 kts | 355° |
| 2026-04-25 08:57 | -35.51044 | 149.19465 | 5635 ft | 223 kts | 1° |
| 2026-04-25 08:57 | -35.49508 | 149.19471 | 5402 ft | 214 kts | 359° |
| 2026-04-25 08:58 | -35.48047 | 149.19405 | 5229 ft | 213 kts | 358° |
| 2026-04-25 08:58 | -35.46636 | 149.19358 | 4979 ft | 190 kts | 359° |
| 2026-04-25 08:58 | -35.45373 | 149.19404 | 4541 ft | 172 kts | 2° |
| 2026-04-25 08:58 | -35.44251 | 149.19447 | 4383 ft | 152 kts | 0° |
| 2026-04-25 08:59 | -35.43210 | 149.19441 | 4189 ft | 143 kts | 359° |
| 2026-04-25 08:59 | -35.42273 | 149.19447 | 4006 ft | 130 kts | 0° |
| 2026-04-25 08:59 | -35.41384 | 149.19441 | 3844 ft | 126 kts | 358° |
| 2026-04-25 08:59 | -35.40505 | 149.19444 | 3678 ft | 126 kts | 1° |
| 2026-04-25 09:00 | -35.39625 | 149.19448 | 3514 ft | 126 kts | 358° |
| 2026-04-25 09:00 | -35.38771 | 149.19438 | 3345 ft | 118 kts | 1° |
| 2026-04-25 09:00 | -35.37968 | 149.19452 | 3185 ft | 114 kts | 358° |
| 2026-04-25 09:00 | -35.37173 | 149.19433 | 3029 ft | 114 kts | 0° |
| 2026-04-25 09:01 | -35.36381 | 149.19456 | 2874 ft | 114 kts | 360° |
| 2026-04-25 09:01 | -35.35599 | 149.19432 | 2727 ft | 114 kts | 0° |
| 2026-04-25 09:01 | -35.34802 | 149.19448 | 2560 ft | 115 kts | 2° |
| 2026-04-25 09:01 | -35.34005 | 149.19448 | 2402 ft | 114 kts | 0° |
| 2026-04-25 09:02 | -35.33215 | 149.19443 | 2249 ft | 113 kts | 1° |
| 2026-04-25 09:02 | -35.32434 | 149.19444 | 2103 ft | 112 kts | 0° |
| 2026-04-25 09:02 | -35.31655 | 149.19439 | 1955 ft | 112 kts | 1° |
| 2026-04-25 09:02 | -35.30908 | 149.19445 | 1874 ft | 95 kts | 0° |
| 2026-04-25 09:03 | -35.30518 | 149.19444 | 1874 ft | 34 kts | 0° |
| 2026-04-25 09:03 | -35.30298 | 149.19444 | 1874 ft | 25 kts | 359° |
| 2026-04-25 09:03 | -35.30177 | 149.19396 | 1874 ft | 15 kts | 286° |
| 2026-04-25 09:03 | -35.30153 | 149.19307 | 1874 ft | 4 kts | 289° |
| 2026-04-25 09:04 | -35.30151 | 149.19300 | 1874 ft | 0 kts | 289° |
| 2026-04-25 09:05 | -35.30147 | 149.19284 | 1874 ft | 6 kts | 283° |
| 2026-04-25 09:05 | -35.30188 | 149.19207 | 1874 ft | 16 kts | 221° |
| 2026-04-25 09:05 | -35.30295 | 149.19095 | 1874 ft | 23 kts | 218° |
| 2026-04-25 09:05 | -35.30406 | 149.18970 | 1874 ft | 19 kts | 244° |
| 2026-04-25 09:06 | -35.30432 | 149.18888 | 1874 ft | 7 kts | 248° |
| 2026-04-25 09:06 | -35.30455 | 149.18819 | 1874 ft | 8 kts | 249° |